Terminal Aerodrome Forecast
Issued by NWS Billings, MT

Home | Current Version | Previous Version | Text Only | Print | Product List | Glossary On
Versions: 1 2 3 4 5 6 7 8 9 10 11 12 13 14 15 16 17 18 19 20 21 22 23 24 25 26
000
FTUS45 KBYZ 312339
TAFMLS
TAF
KMLS 312339Z 0100/0124 16015G25KT P6SM FEW200
     FM010200 16013KT P6SM FEW200
     FM010400 16015KT P6SM SCT250 WS020/18043KT
     FM011200 15012KT P6SM SCT150
     FM011800 18012KT P6SM SCT150=

USA.gov is the U.S. government's official web portal to all federal, state and local government web resources and services.